Time;durP1;ratioP1;P1;durP2;ratioP2;P2;SDS_P1;SDS_P2;PMS_P1;PMS_P2;Temp;Humidity;BMP_temperature;BMP_pressure;BME280_temperature;BME280_humidity;BME280_pressure;Samples;Min_cycle;Max_cycle;Signal;HPM_P1;HPM_P2
2022/03/07 00:01:25;;;;;;;24.33;20.30;;;;;;;0.77;64.38;101433.50;5065009;28;20932;-63
2022/03/07 00:03:52;;;;;;;24.10;20.53;;;;;;;0.84;64.50;101429.75;5064032;28;20999;-63
2022/03/07 00:06:20;;;;;;;24.73;19.17;;;;;;;1.03;64.23;101428.25;5082859;28;20479;-62
2022/03/07 00:08:48;;;;;;;25.37;19.67;;;;;;;1.15;63.62;101420.81;5081098;28;20436;-63
2022/03/07 00:11:15;;;;;;;20.57;17.67;;;;;;;1.17;63.49;101422.50;5065219;28;20547;-62
2022/03/07 00:13:41;;;;;;;24.97;20.17;;;;;;;1.02;63.94;101425.66;5063458;28;20515;-63
2022/03/07 00:16:08;;;;;;;22.13;18.40;;;;;;;1.10;63.95;101416.59;5064948;28;20483;-63
2022/03/07 00:18:35;;;;;;;23.50;19.77;;;;;;;1.22;63.78;101422.38;5063445;28;20445;-63
2022/03/07 00:21:02;;;;;;;23.40;19.43;;;;;;;1.30;63.36;101421.19;5064245;28;20452;-63
2022/03/07 00:23:31;;;;;;;23.40;17.93;;;;;;;1.33;63.78;101425.47;5051133;28;20460;-63
2022/03/07 00:25:57;;;;;;;25.50;19.20;;;;;;;1.41;63.44;101418.19;5065442;28;20539;-63
2022/03/07 00:28:24;;;;;;;26.33;19.33;;;;;;;1.35;63.15;101425.44;5082071;28;20455;-63
2022/03/07 00:30:51;;;;;;;22.40;17.47;;;;;;;1.28;63.63;101417.72;5075573;28;20470;-63
2022/03/07 00:33:17;;;;;;;26.10;18.53;;;;;;;1.31;63.70;101416.78;5075242;28;20459;-63
2022/03/07 00:35:47;;;;;;;20.43;17.93;;;;;;;1.43;63.24;101421.63;5064801;28;20459;-63
2022/03/07 00:38:14;;;;;;;22.07;18.70;;;;;;;1.42;63.36;101414.63;5081474;28;20502;-63
2022/03/07 00:40:42;;;;;;;24.70;17.47;;;;;;;1.37;63.77;101419.22;5103779;28;20489;-64
2022/03/07 00:43:09;;;;;;;21.90;18.10;;;;;;;1.34;63.91;101416.69;5102038;28;20485;-64
2022/03/07 00:45:36;;;;;;;21.70;18.60;;;;;;;1.23;63.54;101417.06;5102125;28;20455;-64
2022/03/07 00:48:03;;;;;;;23.10;18.93;;;;;;;1.15;63.89;101416.44;5099844;28;20503;-64
2022/03/07 00:50:30;;;;;;;24.77;18.70;;;;;;;1.15;63.97;101416.44;5083781;28;20513;-64
2022/03/07 00:52:57;;;;;;;21.80;17.60;;;;;;;1.19;63.92;101417.19;5084389;28;20868;-64
2022/03/07 00:55:23;;;;;;;24.90;19.00;;;;;;;1.16;64.01;101423.41;5102074;28;20479;-63
2022/03/07 00:57:51;;;;;;;19.90;17.23;;;;;;;1.24;63.68;101417.91;5069569;28;20447;-64
2022/03/07 01:00:18;;;;;;;23.47;17.30;;;;;;;1.39;63.22;101422.66;5084385;28;20483;-64
2022/03/07 01:02:45;;;;;;;22.67;17.30;;;;;;;1.51;63.13;101423.97;5090345;28;20443;-64
2022/03/07 01:05:12;;;;;;;26.93;18.27;;;;;;;1.37;63.70;101426.25;5103561;28;20459;-64
2022/03/07 01:07:39;;;;;;;23.90;17.70;;;;;;;1.30;64.12;101423.84;5096534;28;20447;-63
2022/03/07 01:10:06;;;;;;;25.33;18.57;;;;;;;1.42;63.79;101427.78;5087163;28;20482;-63
2022/03/07 01:12:33;;;;;;;21.03;17.30;;;;;;;1.29;63.58;101429.16;5096875;28;20462;-63
2022/03/07 01:15:01;;;;;;;24.97;18.00;;;;;;;1.27;64.09;101426.56;5100083;28;20451;-63
2022/03/07 01:17:28;;;;;;;27.73;18.27;;;;;;;1.24;64.60;101437.19;5102609;28;20518;-64
2022/03/07 01:19:54;;;;;;;21.00;17.17;;;;;;;1.25;64.73;101431.03;5082533;28;20472;-64
2022/03/07 01:22:21;;;;;;;20.50;17.30;;;;;;;1.26;64.99;101430.09;5084068;28;20522;-64
2022/03/07 01:24:48;;;;;;;21.77;18.40;;;;;;;1.25;64.85;101435.41;5083939;28;20448;-64
2022/03/07 01:27:15;;;;;;;22.43;17.80;;;;;;;1.40;65.00;101436.69;5087713;28;20432;-64
2022/03/07 01:29:41;;;;;;;22.03;18.33;;;;;;;1.54;63.95;101436.19;5083845;28;20440;-63
2022/03/07 01:32:09;;;;;;;19.80;16.67;;;;;;;1.49;63.87;101439.00;5087418;28;20431;-64
2022/03/07 01:34:36;;;;;;;22.87;18.23;;;;;;;1.49;63.97;101431.97;5094230;28;20459;-64
2022/03/07 01:37:03;;;;;;;23.63;17.67;;;;;;;1.48;63.98;101438.13;5093873;28;20479;-64
2022/03/07 01:39:30;;;;;;;22.77;18.80;;;;;;;1.50;63.86;101441.56;5100398;28;20493;-64
2022/03/07 01:41:57;;;;;;;22.70;18.80;;;;;;;1.48;64.09;101427.59;5091845;28;20467;-64
2022/03/07 01:44:27;;;;;;;22.90;17.27;;;;;;;1.44;64.18;101431.25;5102353;28;20463;-64
2022/03/07 01:46:53;;;;;;;25.50;19.10;;;;;;;1.56;63.79;101429.09;5092389;28;20673;-64
2022/03/07 01:49:22;;;;;;;23.57;18.67;;;;;;;1.57;63.77;101431.69;5084535;28;20444;-64
2022/03/07 01:51:49;;;;;;;24.23;17.40;;;;;;;1.53;63.45;101432.72;5090023;28;20444;-64
2022/03/07 01:54:17;;;;;;;24.93;18.97;;;;;;;1.50;63.14;101433.66;5085956;28;20950;-63
2022/03/07 01:56:45;;;;;;;25.50;20.77;;;;;;;1.54;63.57;101431.78;5102126;28;20450;-64
2022/03/07 01:59:12;;;;;;;22.10;17.20;;;;;;;1.63;63.50;101420.06;5096613;28;20492;-64
2022/03/07 02:01:39;;;;;;;25.83;18.93;;;;;;;1.64;63.24;101429.69;5083798;28;20475;-64
2022/03/07 02:04:06;;;;;;;24.33;19.43;;;;;;;1.50;63.26;101423.13;5102447;28;20479;-64
2022/03/07 02:06:34;;;;;;;27.00;19.70;;;;;;;1.35;64.00;101420.16;5101764;28;20486;-64
2022/03/07 02:09:01;;;;;;;29.43;20.53;;;;;;;1.31;64.05;101422.06;5100799;28;20902;-64
2022/03/07 02:11:28;;;;;;;24.03;18.90;;;;;;;1.35;63.69;101420.16;5085604;28;20448;-64
2022/03/07 02:13:55;;;;;;;23.70;18.20;;;;;;;1.27;63.61;101410.75;5081629;28;20465;-64
2022/03/07 02:16:22;;;;;;;23.63;19.00;;;;;;;1.38;63.22;101415.66;5095999;28;20462;-64
2022/03/07 02:18:49;;;;;;;22.23;18.90;;;;;;;1.28;63.43;101409.81;5101299;28;20520;-64
2022/03/07 02:21:17;;;;;;;24.00;19.83;;;;;;;1.42;63.38;101411.97;5089528;28;20490;-64
2022/03/07 02:23:46;;;;;;;23.67;18.43;;;;;;;1.35;62.89;101412.25;5086797;28;20498;-65
2022/03/07 02:26:15;;;;;;;25.33;18.97;;;;;;;1.32;62.77;101410.63;5100352;28;20487;-64
2022/03/07 02:28:43;;;;;;;23.50;18.47;;;;;;;1.44;62.91;101410.19;5094794;28;20530;-64
2022/03/07 02:31:10;;;;;;;23.13;18.53;;;;;;;1.41;62.34;101405.00;5099712;28;20937;-64
2022/03/07 02:33:38;;;;;;;22.20;18.00;;;;;;;1.38;62.52;101412.16;5091167;28;20531;-63
2022/03/07 02:36:05;;;;;;;20.63;17.57;;;;;;;1.34;62.95;101416.69;5087276;28;20477;-63
2022/03/07 02:38:32;;;;;;;24.27;18.47;;;;;;;1.41;62.75;101417.34;5101357;28;20470;-63
2022/03/07 02:41:00;;;;;;;22.47;17.80;;;;;;;1.31;63.30;101416.78;5093070;28;20529;-63
2022/03/07 02:43:27;;;;;;;23.90;18.20;;;;;;;1.41;62.96;101410.28;5083642;28;20496;-63
2022/03/07 02:45:55;;;;;;;22.57;18.10;;;;;;;1.23;62.89;101403.00;5090994;28;20513;-64
2022/03/07 02:48:22;;;;;;;20.87;17.43;;;;;;;1.09;63.40;101401.72;5101183;28;20538;-63
2022/03/07 02:50:49;;;;;;;21.57;18.37;;;;;;;1.23;63.12;101405.63;5093291;28;20447;-64
2022/03/07 02:53:16;;;;;;;19.57;17.03;;;;;;;1.33;63.15;101409.69;5094763;28;20470;-64
2022/03/07 02:55:43;;;;;;;25.67;17.87;;;;;;;1.38;62.78;101410.38;5086093;28;20505;-64
2022/03/07 02:58:11;;;;;;;22.60;17.20;;;;;;;1.07;63.29;101415.84;5099165;28;20450;-64
2022/03/07 03:00:38;;;;;;;21.40;16.60;;;;;;;1.08;63.92;101409.66;5100556;28;20486;-64
2022/03/07 03:03:05;;;;;;;18.97;16.43;;;;;;;1.08;63.65;101421.06;5100558;28;20447;-64
2022/03/07 03:05:31;;;;;;;22.93;17.43;;;;;;;1.25;63.40;101417.84;5089814;28;20474;-64
2022/03/07 03:07:58;;;;;;;25.20;18.53;;;;;;;1.20;63.51;101408.38;5098493;28;20439;-64
2022/03/07 03:10:25;;;;;;;22.50;17.40;;;;;;;1.14;64.24;101409.44;5101359;28;20617;-65
2022/03/07 03:12:52;;;;;;;23.30;17.43;;;;;;;1.27;64.01;101412.53;5099642;28;20482;-64
2022/03/07 03:15:20;;;;;;;25.20;17.93;;;;;;;1.41;63.82;101409.44;5099584;28;20450;-65
2022/03/07 03:17:47;;;;;;;20.27;16.60;;;;;;;1.42;63.36;101411.13;5098344;28;20465;-64
2022/03/07 03:20:16;;;;;;;22.93;18.47;;;;;;;1.04;63.42;101410.66;5085300;28;20486;-64
2022/03/07 03:22:44;;;;;;;25.60;17.40;;;;;;;1.11;63.89;101405.16;5080149;28;20440;-64
2022/03/07 03:25:12;;;;;;;23.70;17.23;;;;;;;1.22;64.07;101419.75;5087579;28;20456;-64
2022/03/07 03:27:39;;;;;;;20.73;17.40;;;;;;;1.03;64.01;101406.31;5105374;28;20465;-64
2022/03/07 03:30:08;;;;;;;20.53;16.73;;;;;;;1.03;64.38;101406.31;5086294;28;20438;-64
2022/03/07 03:32:36;;;;;;;18.80;16.63;;;;;;;1.10;64.35;101407.84;5091605;28;20447;-64
2022/03/07 03:35:02;;;;;;;20.70;16.93;;;;;;;1.04;64.00;101405.38;5102980;28;20471;-64
2022/03/07 03:37:29;;;;;;;22.43;16.60;;;;;;;1.10;63.83;101403.41;5103171;28;20517;-64
2022/03/07 03:39:56;;;;;;;23.93;17.40;;;;;;;1.13;64.00;101408.59;5103657;28;20554;-64
2022/03/07 03:42:22;;;;;;;22.20;18.07;;;;;;;1.17;63.95;101408.50;5084457;28;20455;-64
2022/03/07 03:44:50;;;;;;;21.07;17.40;;;;;;;1.19;63.62;101409.28;5099394;28;20459;-64
2022/03/07 03:47:17;;;;;;;20.17;15.43;;;;;;;1.07;63.90;101410.56;5102780;28;20454;-64
2022/03/07 03:49:45;;;;;;;23.20;16.87;;;;;;;1.18;63.51;101400.53;5085349;28;20436;-63
2022/03/07 03:52:11;;;;;;;23.60;18.87;;;;;;;1.26;63.42;101406.38;5085873;28;20950;-63
2022/03/07 03:54:38;;;;;;;18.90;16.13;;;;;;;1.21;63.60;101410.09;5084432;28;20487;-63
2022/03/07 03:57:05;;;;;;;24.77;17.90;;;;;;;1.16;63.68;101414.66;5100287;28;20471;-63
2022/03/07 03:59:33;;;;;;;25.50;16.77;;;;;;;1.25;63.49;101403.81;5103874;28;20459;-64
2022/03/07 04:01:59;;;;;;;18.50;16.50;;;;;;;1.21;63.79;101403.03;5089232;28;20526;-63
2022/03/07 04:04:26;;;;;;;20.93;17.00;;;;;;;1.13;63.80;101403.31;5095991;28;20468;-64
2022/03/07 04:06:54;;;;;;;23.30;18.77;;;;;;;1.15;63.78;101408.53;5085365;28;20451;-64
2022/03/07 04:09:22;;;;;;;22.47;17.27;;;;;;;1.07;64.16;101408.78;5085866;28;20440;-64
2022/03/07 04:11:49;;;;;;;22.40;18.30;;;;;;;1.02;64.24;101404.59;5086870;28;20469;-64
2022/03/07 04:14:16;;;;;;;26.07;17.97;;;;;;;1.04;63.66;101400.13;5102423;28;20471;-63
2022/03/07 04:16:43;;;;;;;22.53;17.67;;;;;;;1.04;63.67;101401.00;5095063;28;20758;-63
2022/03/07 04:19:11;;;;;;;24.40;18.40;;;;;;;1.06;63.67;101412.34;5084227;28;20474;-63
2022/03/07 04:21:39;;;;;;;22.08;16.65;;;;;;;1.09;63.25;101408.72;5085581;28;20487;-63
2022/03/07 04:24:08;;;;;;;26.30;17.00;;;;;;;1.21;63.15;101404.84;5088257;28;20232;-63
2022/03/07 04:26:35;;;;;;;27.50;17.87;;;;;;;1.12;62.98;101411.28;5083643;28;20495;-63
2022/03/07 04:29:05;;;;;;;20.23;16.23;;;;;;;1.10;62.89;101402.56;5086533;28;20894;-63
2022/03/07 04:31:32;;;;;;;20.33;16.67;;;;;;;1.18;63.15;101407.56;5104351;28;20446;-64
2022/03/07 04:33:58;;;;;;;22.20;17.20;;;;;;;1.27;62.66;101409.91;5102260;28;20454;-63
2022/03/07 04:36:25;;;;;;;21.37;17.23;;;;;;;1.23;62.84;101403.88;5087360;28;20514;-63
2022/03/07 04:38:52;;;;;;;21.50;17.03;;;;;;;1.11;63.33;101405.16;5102913;28;20470;-64
2022/03/07 04:41:20;;;;;;;27.97;17.47;;;;;;;1.24;63.39;101415.28;5098359;28;20480;-64
2022/03/07 04:43:47;;;;;;;24.67;18.50;;;;;;;1.33;63.01;101416.72;5091282;28;20451;-64
2022/03/07 04:46:14;;;;;;;23.43;17.90;;;;;;;1.17;63.53;101417.25;5098888;28;20551;-64
2022/03/07 04:48:40;;;;;;;21.17;17.40;;;;;;;1.25;63.70;101412.59;5083516;28;20935;-65
2022/03/07 04:51:07;;;;;;;23.50;17.20;;;;;;;1.11;63.97;101405.16;5083599;28;20487;-65
2022/03/07 04:53:34;;;;;;;27.03;20.17;;;;;;;1.18;63.64;101410.19;5103424;28;20443;-65
2022/03/07 04:56:00;;;;;;;23.87;18.10;;;;;;;0.78;64.69;101404.47;5087870;28;20451;-65
2022/03/07 04:58:28;;;;;;;22.10;18.20;;;;;;;0.44;66.13;101409.97;5082499;28;20471;-65
2022/03/07 05:01:05;;;;;;;24.10;18.43;;;;;;;0.63;65.82;101397.94;5085113;28;20537;-65
2022/03/07 05:03:31;;;;;;;24.33;17.43;;;;;;;0.82;65.36;101400.00;5084791;28;20487;-65
2022/03/07 05:05:58;;;;;;;23.60;18.23;;;;;;;0.87;65.36;101405.97;5091776;28;20491;-65
2022/03/07 05:08:25;;;;;;;24.53;19.83;;;;;;;0.84;65.42;101419.22;5085193;28;20462;-66
2022/03/07 05:10:51;;;;;;;27.33;18.87;;;;;;;0.75;66.40;101423.88;5084046;28;20459;-65
2022/03/07 05:13:18;;;;;;;23.27;18.77;;;;;;;0.90;66.38;101424.28;5083882;28;20503;-65
2022/03/07 05:15:46;;;;;;;23.67;18.30;;;;;;;0.85;66.46;101429.72;5082607;28;20448;-66
2022/03/07 05:18:15;;;;;;;25.27;18.00;;;;;;;0.87;66.41;101424.41;5101043;28;20501;-66
2022/03/07 05:20:42;;;;;;;26.63;19.90;;;;;;;0.94;66.46;101420.66;5086551;28;20536;-65
2022/03/07 05:23:08;;;;;;;25.20;18.83;;;;;;;0.94;66.30;101429.41;5087499;28;20514;-65
2022/03/07 05:25:35;;;;;;;23.53;17.80;;;;;;;0.89;66.59;101435.75;5092360;28;20526;-66
2022/03/07 05:28:02;;;;;;;24.50;19.07;;;;;;;0.99;66.37;101418.72;5092247;28;20556;-66
2022/03/07 05:30:29;;;;;;;24.87;19.20;;;;;;;0.88;66.46;101421.69;5092907;28;20436;-66
2022/03/07 05:32:57;;;;;;;27.13;20.43;;;;;;;0.83;66.89;101420.97;5093246;28;20512;-67
2022/03/07 05:35:24;;;;;;;28.83;18.93;;;;;;;0.89;66.64;101422.56;5087218;28;20463;-66
2022/03/07 05:37:51;;;;;;;29.97;20.43;;;;;;;0.70;67.24;101419.66;5095564;28;20511;-68
2022/03/07 05:40:18;;;;;;;23.97;19.40;;;;;;;0.65;67.34;101419.81;5086527;28;20475;-61
2022/03/07 05:42:45;;;;;;;30.37;20.00;;;;;;;0.45;67.85;101423.06;5092503;28;20447;-61
2022/03/07 05:45:13;;;;;;;23.43;19.33;;;;;;;0.43;68.21;101426.63;5099997;28;20957;-61
2022/03/07 05:47:40;;;;;;;24.93;19.23;;;;;;;0.44;68.39;101423.97;5085036;28;20505;-61
2022/03/07 05:50:10;;;;;;;31.37;20.53;;;;;;;0.22;68.84;101422.88;5096281;28;20447;-61
2022/03/07 05:52:36;;;;;;;24.07;20.10;;;;;;;0.29;68.86;101422.66;5100159;28;20837;-61
2022/03/07 05:55:04;;;;;;;25.20;19.17;;;;;;;0.32;69.03;101430.44;5084237;28;20469;-62
2022/03/07 05:57:30;;;;;;;26.08;19.80;;;;;;;0.36;68.64;101433.84;5099931;28;20471;-61
2022/03/07 05:59:57;;;;;;;23.73;18.80;;;;;;;0.36;68.72;101437.38;5101733;28;20547;-61
2022/03/07 06:02:24;;;;;;;26.47;20.17;;;;;;;0.43;68.89;101450.31;5085565;28;20273;-61
2022/03/07 06:04:50;;;;;;;24.47;19.13;;;;;;;0.59;68.65;101443.69;5093337;28;20447;-61
2022/03/07 06:07:18;;;;;;;26.92;20.17;;;;;;;0.81;67.93;101438.59;5102446;28;20451;-61
2022/03/07 06:09:45;;;;;;;25.50;18.90;;;;;;;0.96;67.35;101442.53;5102951;28;20652;-61
2022/03/07 06:12:12;;;;;;;24.07;18.53;;;;;;;1.04;66.88;101445.78;5083351;28;20440;-61
2022/03/07 06:14:38;;;;;;;25.23;20.00;;;;;;;1.26;66.59;101447.69;5091736;28;20505;-61
2022/03/07 06:17:05;;;;;;;23.90;19.40;;;;;;;1.45;65.70;101442.66;5101424;28;20455;-62
2022/03/07 06:19:32;;;;;;;22.00;19.17;;;;;;;1.35;65.56;101439.47;5081028;28;20467;-62
2022/03/07 06:21:59;;;;;;;26.17;19.57;;;;;;;1.45;65.80;101448.78;5081597;28;20550;-61
2022/03/07 06:24:29;;;;;;;20.27;17.13;;;;;;;1.77;64.86;101457.34;5081420;28;20459;-61
2022/03/07 06:26:56;;;;;;;24.67;18.37;;;;;;;1.88;64.35;101457.81;5091540;28;20513;-61
2022/03/07 06:29:23;;;;;;;23.77;18.43;;;;;;;1.92;64.03;101455.94;5092889;28;20456;-61
2022/03/07 06:31:50;;;;;;;19.50;14.60;;;;;;;3.58;71.81;101464.38;5091904;28;20541;-61
2022/03/07 06:34:17;;;;;;;22.80;17.40;;;;;;;3.75;63.54;101456.59;5081327;28;20447;-61
2022/03/07 06:36:44;;;;;;;20.20;16.13;;;;;;;3.49;60.71;101459.47;5084472;28;20490;-61
2022/03/07 06:39:11;;;;;;;23.50;16.90;;;;;;;4.19;58.47;101449.38;5092526;28;21005;-61
2022/03/07 06:41:39;;;;;;;18.50;16.50;;;;;;;5.80;52.82;101448.59;5078914;28;20970;-61
2022/03/07 06:44:06;;;;;;;14.50;13.00;;;;;;;6.18;50.44;101445.69;5076641;28;20448;-61
2022/03/07 06:46:34;;;;;;;18.10;13.23;;;;;;;7.46;48.72;101459.78;5081112;28;20451;-61
2022/03/07 06:49:00;;;;;;;17.00;12.80;;;;;;;8.67;44.99;101455.00;5080491;28;20428;-62
2022/03/07 06:51:27;;;;;;;15.57;11.50;;;;;;;9.90;43.61;101445.94;5081037;28;20447;-62
2022/03/07 06:53:53;;;;;;;15.77;12.40;;;;;;;11.19;39.31;101456.34;5081292;28;20921;-62
2022/03/07 06:56:20;;;;;;;13.87;10.73;;;;;;;11.51;37.60;101453.91;5080200;28;20483;-62
2022/03/07 06:58:48;;;;;;;12.23;11.03;;;;;;;11.21;38.25;101447.22;5080641;28;20458;-62
2022/03/07 07:01:15;;;;;;;12.10;10.57;;;;;;;12.14;36.10;101450.88;5081693;28;20967;-62
2022/03/07 07:03:42;;;;;;;11.30;10.13;;;;;;;12.36;34.67;101461.63;5080561;28;20455;-62
2022/03/07 07:06:08;;;;;;;11.47;9.87;;;;;;;12.47;35.11;101454.53;5080899;28;20483;-63
2022/03/07 07:08:35;;;;;;;12.30;10.80;;;;;;;12.96;34.55;101451.38;5081272;28;20425;-62
2022/03/07 07:11:02;;;;;;;11.47;10.03;;;;;;;13.41;33.35;101449.53;5081063;28;20508;-62
2022/03/07 07:13:28;;;;;;;12.93;9.70;;;;;;;13.74;33.28;101451.19;5080498;28;20456;-63
2022/03/07 07:15:56;;;;;;;10.60;9.50;;;;;;;14.45;32.04;101451.25;5082998;28;20455;-63
2022/03/07 07:18:23;;;;;;;12.30;11.03;;;;;;;15.17;30.17;101453.81;5078299;28;20447;-63
2022/03/07 07:20:51;;;;;;;11.80;9.43;;;;;;;15.38;30.39;101453.66;5080681;28;20830;-63
2022/03/07 07:25:58;;;;;;;10.07;9.07;;;;;;;15.61;29.71;101465.03;5084803;28;20451;-63
2022/03/07 07:28:25;;;;;;;10.37;9.33;;;;;;;15.88;29.34;101468.81;5074362;28;20470;-63
2022/03/07 07:30:52;;;;;;;10.83;9.83;;;;;;;15.74;28.92;101468.25;5086676;28;20486;-63
2022/03/07 07:33:20;;;;;;;11.67;9.77;;;;;;;16.68;27.66;101474.63;5083244;28;20534;-59
2022/03/07 07:35:46;;;;;;;12.13;10.93;;;;;;;17.30;26.79;101475.66;5082377;28;20753;-65
2022/03/07 07:38:13;;;;;;;11.50;10.40;;;;;;;17.26;26.16;101478.84;5078506;28;20574;-65
2022/03/07 07:40:40;;;;;;;11.00;10.00;;;;;;;17.04;26.80;101485.53;5076673;28;20898;-65
2022/03/07 07:43:07;;;;;;;10.93;9.83;;;;;;;17.03;27.04;101479.28;5084969;28;20706;-65
2022/03/07 07:45:35;;;;;;;10.67;9.57;;;;;;;17.55;25.20;101493.94;5092753;28;20601;-65
2022/03/07 07:48:02;;;;;;;10.73;9.63;;;;;;;18.12;25.16;101485.44;5078179;28;20468;-65
2022/03/07 07:50:30;;;;;;;11.83;10.63;;;;;;;17.21;25.96;101489.25;5078881;28;20467;-66
2022/03/07 07:52:57;;;;;;;11.20;10.23;;;;;;;17.26;26.28;101486.94;5096873;28;20432;-65
2022/03/07 07:55:24;;;;;;;11.73;10.67;;;;;;;17.07;26.10;101485.22;5097692;28;20450;-66
2022/03/07 07:57:51;;;;;;;12.70;11.40;;;;;;;18.04;25.27;101480.84;5088666;28;20452;-65
2022/03/07 08:00:20;;;;;;;11.00;9.87;;;;;;;18.38;24.74;101485.41;5077712;28;20484;-66
2022/03/07 08:02:47;;;;;;;11.67;10.57;;;;;;;18.03;24.77;101490.78;5075759;28;20731;-66
2022/03/07 08:05:14;;;;;;;10.87;9.80;;;;;;;18.51;24.75;101490.41;5077517;28;20993;-66
2022/03/07 08:07:42;;;;;;;11.17;10.03;;;;;;;19.24;23.59;101486.25;5078051;28;20432;-66
2022/03/07 08:10:10;;;;;;;11.00;10.00;;;;;;;18.83;23.53;101488.84;5092928;28;20516;-66
2022/03/07 08:12:37;;;;;;;12.23;10.67;;;;;;;19.04;23.77;101489.22;5087915;28;20447;-65
2022/03/07 08:15:06;;;;;;;11.60;10.30;;;;;;;17.30;25.94;101494.56;5092573;28;20446;-65
2022/03/07 08:17:33;;;;;;;11.07;9.97;;;;;;;16.43;27.57;101498.63;5099976;28;20461;-65
2022/03/07 08:20:00;;;;;;;11.90;10.70;;;;;;;16.32;27.85;101486.16;5097332;28;20549;-65
2022/03/07 08:22:27;;;;;;;12.40;11.13;;;;;;;13.52;33.17;101503.19;5085453;28;20533;-65
2022/03/07 08:24:55;;;;;;;13.80;10.90;;;;;;;11.75;36.70;101504.78;5081626;28;20483;-65
2022/03/07 08:27:21;;;;;;;10.63;9.57;;;;;;;11.87;37.33;101502.94;5085356;28;20488;-65
2022/03/07 08:29:49;;;;;;;13.47;10.90;;;;;;;12.68;35.73;101501.09;5090039;28;20855;-65
2022/03/07 08:32:15;;;;;;;15.60;10.97;;;;;;;13.75;34.47;101496.75;5101730;28;20431;-65
2022/03/07 08:34:42;;;;;;;10.63;9.53;;;;;;;14.88;31.68;101500.44;5100752;28;20512;-65
2022/03/07 08:37:09;;;;;;;11.43;10.17;;;;;;;13.43;33.52;101494.09;5100640;28;20495;-65
2022/03/07 08:39:35;;;;;;;11.63;9.90;;;;;;;13.40;33.93;101496.19;5091988;28;20893;-65
2022/03/07 08:42:04;;;;;;;12.17;10.27;;;;;;;14.75;32.21;101486.34;5100166;28;20977;-65
2022/03/07 08:44:30;;;;;;;11.93;10.47;;;;;;;15.09;31.43;101492.25;5083210;28;20500;-65
2022/03/07 08:46:57;;;;;;;13.93;10.93;;;;;;;15.31;31.18;101488.44;5081077;28;20451;-65
2022/03/07 08:49:24;;;;;;;9.70;8.70;;;;;;;15.53;30.62;101495.38;5097297;28;20829;-66
2022/03/07 08:51:50;;;;;;;12.73;11.37;;;;;;;15.35;30.92;101494.41;5101330;28;20451;-65
2022/03/07 08:54:18;;;;;;;10.30;9.10;;;;;;;15.70;30.20;101506.44;5087862;28;20522;-66
2022/03/07 08:56:44;;;;;;;12.30;9.23;;;;;;;16.23;29.48;101499.69;5085827;28;20475;-62
2022/03/07 08:59:13;;;;;;;10.10;8.70;;;;;;;16.85;28.55;101497.31;5087722;28;20463;-65
2022/03/07 09:01:39;;;;;;;13.23;9.77;;;;;;;16.42;28.37;101494.22;5092213;28;20532;-65
2022/03/07 09:04:06;;;;;;;11.07;9.07;;;;;;;17.16;27.39;101487.00;5101432;28;20918;-65
2022/03/07 09:06:33;;;;;;;10.53;9.43;;;;;;;16.72;27.83;101482.28;5100409;28;20466;-65
2022/03/07 09:08:59;;;;;;;9.57;8.57;;;;;;;15.22;29.27;101489.25;5100543;28;20473;-65
2022/03/07 09:11:26;;;;;;;11.00;8.63;;;;;;;14.16;30.57;101485.25;5101156;28;20461;-64
2022/03/07 09:13:53;;;;;;;11.60;8.40;;;;;;;14.66;31.29;101482.66;5094534;28;20636;-65
2022/03/07 09:16:22;;;;;;;12.93;8.60;;;;;;;15.54;29.25;101483.59;5088843;28;20451;-65
2022/03/07 09:18:49;;;;;;;11.33;8.40;;;;;;;16.39;28.21;101481.03;5088635;28;20449;-65
2022/03/07 09:21:16;;;;;;;9.17;8.20;;;;;;;16.57;27.99;101486.47;5092258;28;20461;-64
2022/03/07 09:23:42;;;;;;;7.57;6.87;;;;;;;16.76;26.97;101483.66;5095368;28;20444;-65
2022/03/07 09:26:10;;;;;;;9.50;8.00;;;;;;;17.32;26.24;101480.91;5086003;28;20454;-65
2022/03/07 09:28:37;;;;;;;9.30;7.50;;;;;;;17.48;25.58;101488.31;5099780;28;20458;-65
2022/03/07 09:31:04;;;;;;;8.83;7.80;;;;;;;16.92;26.48;101488.44;5083917;28;20449;-65
2022/03/07 09:33:32;;;;;;;8.50;7.60;;;;;;;16.70;26.64;101483.41;5094472;28;20530;-65
2022/03/07 09:35:59;;;;;;;9.70;6.87;;;;;;;17.26;26.08;101484.25;5085590;28;20527;-65
2022/03/07 09:38:26;;;;;;;8.20;7.40;;;;;;;15.65;28.46;101479.91;5094071;28;20486;-65
2022/03/07 09:40:53;;;;;;;10.67;8.10;;;;;;;13.51;31.48;101496.16;5088809;28;20448;-65
2022/03/07 09:43:20;;;;;;;9.20;8.03;;;;;;;14.20;30.30;101490.22;5079794;28;20492;-64
2022/03/07 09:45:46;;;;;;;8.67;7.80;;;;;;;14.73;30.07;101491.03;5078257;28;20487;-64
2022/03/07 09:48:13;;;;;;;10.90;7.73;;;;;;;15.74;29.04;101479.03;5090696;28;20471;-64
2022/03/07 09:50:42;;;;;;;8.43;7.57;;;;;;;14.70;29.58;101484.06;5100313;28;20558;-63
2022/03/07 09:53:08;;;;;;;10.23;8.70;;;;;;;14.49;30.77;101482.28;5082422;28;20499;-65
2022/03/07 09:55:36;;;;;;;9.30;8.07;;;;;;;14.66;29.40;101480.78;5095374;28;20466;-65
2022/03/07 09:58:03;;;;;;;9.60;7.47;;;;;;;14.73;29.19;101486.50;5095320;28;20532;-65
2022/03/07 10:00:30;;;;;;;8.77;6.87;;;;;;;15.29;28.73;101485.00;5079610;28;20442;-65
2022/03/07 10:02:58;;;;;;;8.10;5.70;;;;;;;15.07;27.84;101497.75;5080078;28;20570;-65
2022/03/07 10:05:28;;;;;;;7.77;7.00;;;;;;;13.44;30.28;101493.13;5080211;28;20437;-64
2022/03/07 10:07:56;;;;;;;9.93;7.20;;;;;;;11.54;33.63;101485.81;5082370;28;20480;-64
2022/03/07 10:10:23;;;;;;;8.40;7.50;;;;;;;11.36;35.22;101480.03;5094406;28;20547;-64
2022/03/07 10:12:51;;;;;;;8.13;7.33;;;;;;;12.14;33.70;101480.38;5098864;28;20984;-64
2022/03/07 10:15:20;;;;;;;9.30;7.63;;;;;;;12.87;32.17;101478.97;5083041;28;20456;-64
2022/03/07 10:17:48;;;;;;;8.73;7.17;;;;;;;13.09;31.85;101483.44;5078677;28;20466;-64
2022/03/07 10:20:19;;;;;;;7.93;6.70;;;;;;;12.97;31.83;101477.25;5079777;28;21072;-64
2022/03/07 10:22:47;;;;;;;7.10;5.57;;;;;;;13.22;31.15;101485.13;5078600;28;20697;-64
2022/03/07 10:25:15;;;;;;;5.90;5.13;;;;;;;13.60;30.52;101481.06;5082615;28;20486;-64
2022/03/07 10:27:44;;;;;;;6.33;5.40;;;;;;;13.43;30.54;101482.50;5098461;28;21005;-64
2022/03/07 10:30:13;;;;;;;7.40;5.93;;;;;;;14.12;29.31;101481.97;5098834;28;20435;-64
2022/03/07 10:32:40;;;;;;;6.93;6.23;;;;;;;14.91;28.13;101473.19;5094805;28;20495;-65
2022/03/07 10:35:08;;;;;;;8.57;6.47;;;;;;;14.38;29.45;101473.47;5078706;28;20459;-64
2022/03/07 10:37:36;;;;;;;7.27;6.57;;;;;;;14.50;29.44;101472.38;5077648;28;20495;-64
2022/03/07 10:40:03;;;;;;;6.90;6.30;;;;;;;14.57;30.05;101465.44;5078892;28;20440;-64
2022/03/07 10:42:32;;;;;;;7.50;6.60;;;;;;;13.17;31.36;101464.00;5079411;28;20521;-65
2022/03/07 10:45:07;;;;;;;9.53;6.57;;;;;;;11.71;34.13;101451.53;5077754;28;20452;-64
2022/03/07 10:47:35;;;;;;;7.93;6.40;;;;;;;11.49;34.43;101442.44;5078408;28;20447;-64
2022/03/07 10:50:03;;;;;;;8.70;6.83;;;;;;;10.83;36.86;101442.91;5079623;28;20435;-64
2022/03/07 10:52:36;;;;;;;8.40;7.23;;;;;;;10.07;37.68;101439.41;5077922;28;20542;-63
2022/03/07 10:55:03;;;;;;;11.17;7.97;;;;;;;10.36;36.99;101444.53;5079358;28;20452;-64
2022/03/07 10:57:34;;;;;;;8.33;7.10;;;;;;;11.17;35.98;101445.75;5077028;28;20523;-64
2022/03/07 11:00:06;;;;;;;9.40;7.40;;;;;;;12.04;34.85;101437.34;5077785;28;20504;-64
2022/03/07 11:02:38;;;;;;;9.53;7.63;;;;;;;11.23;34.96;101439.06;5090412;28;20524;-63
2022/03/07 11:05:07;;;;;;;8.70;7.80;;;;;;;11.71;34.69;101432.78;5090603;28;20467;-64
2022/03/07 11:07:34;;;;;;;9.90;7.07;;;;;;;12.01;34.08;101424.19;5096850;28;20462;-64
2022/03/07 11:10:01;;;;;;;9.40;6.47;;;;;;;10.34;36.88;101431.25;5081011;28;20464;-64
2022/03/07 11:12:27;;;;;;;8.63;7.30;;;;;;;11.13;36.13;101430.91;5093614;28;20479;-64
2022/03/07 11:14:58;;;;;;;7.20;6.50;;;;;;;12.24;34.40;101427.75;5083040;28;20466;-64
2022/03/07 11:17:27;;;;;;;7.90;6.57;;;;;;;12.55;32.55;101435.97;5092737;28;20891;-64
2022/03/07 11:19:55;;;;;;;13.13;7.10;;;;;;;13.26;32.20;101447.13;5083942;28;20452;-65